createdAt,value
2018-04-26T00:00:17.219Z,87.40
2018-04-26T00:01:20.548Z,87.10
2018-04-26T00:02:23.957Z,86.50
2018-04-26T00:03:27.298Z,86.80
2018-04-26T00:04:30.615Z,86.50
2018-04-26T00:05:33.990Z,87.10
2018-04-26T00:06:37.329Z,87.60
2018-04-26T00:07:40.668Z,87.70
2018-04-26T00:08:44.020Z,87.50
2018-04-26T00:09:47.430Z,87.10
2018-04-26T00:10:50.823Z,87.30
2018-04-26T00:11:54.138Z,87.00
2018-04-26T00:12:57.470Z,87.20
2018-04-26T00:14:01.744Z,87.60
2018-04-26T00:15:05.133Z,87.40
2018-04-26T00:16:08.480Z,87.70
2018-04-26T00:17:11.873Z,88.20
2018-04-26T00:18:15.986Z,88.80
2018-04-26T00:19:19.332Z,88.60
2018-04-26T00:20:22.685Z,89.00
2018-04-26T00:21:26.038Z,88.60
2018-04-26T00:22:29.425Z,89.20
2018-04-26T00:23:32.842Z,88.90
2018-04-26T00:24:36.290Z,89.50
2018-04-26T00:25:39.649Z,89.80
2018-04-26T00:26:42.959Z,90.00
2018-04-26T00:27:46.406Z,89.50
2018-04-26T00:28:49.779Z,89.20
2018-04-26T00:29:53.246Z,89.80
2018-04-26T00:30:56.632Z,90.20
2018-04-26T00:31:59.961Z,90.30
2018-04-26T00:33:03.363Z,90.20
2018-04-26T00:34:06.891Z,90.30
2018-04-26T00:35:10.227Z,90.40
2018-04-26T00:36:13.600Z,90.40
2018-04-26T00:37:16.922Z,90.50
2018-04-26T00:38:20.520Z,90.50
2018-04-26T00:39:24.630Z,90.80
2018-04-26T00:40:28.757Z,90.60
2018-04-26T00:41:32.142Z,90.60
2018-04-26T00:42:35.531Z,90.60
2018-04-26T00:43:38.855Z,90.80
2018-04-26T00:44:42.192Z,90.80
2018-04-26T00:45:45.552Z,90.90
2018-04-26T00:46:48.904Z,90.70
2018-04-26T00:47:52.259Z,90.80
2018-04-26T00:48:55.614Z,90.90
2018-04-26T00:49:59.765Z,91.10
2018-04-26T00:51:03.235Z,91.20
2018-04-26T00:52:06.629Z,91.00
2018-04-26T00:53:10.802Z,91.00
2018-04-26T00:54:14.384Z,91.00
2018-04-26T00:55:17.703Z,91.10
2018-04-26T00:56:21.256Z,91.00
2018-04-26T00:57:24.622Z,90.90
2018-04-26T00:58:27.983Z,90.80
2018-04-26T00:59:31.349Z,91.10
2018-04-26T01:00:34.722Z,91.30
2018-04-26T01:01:38.087Z,91.30
2018-04-26T01:02:41.422Z,91.40
2018-04-26T01:03:44.765Z,91.40
2018-04-26T01:04:48.112Z,91.60
2018-04-26T01:05:51.407Z,91.70
2018-04-26T01:06:54.755Z,91.80
2018-04-26T01:07:58.166Z,92.00
2018-04-26T01:09:01.536Z,92.10
2018-04-26T01:10:04.909Z,92.10
2018-04-26T01:11:08.207Z,92.10
2018-04-26T01:12:11.569Z,92.30
2018-04-26T01:13:14.871Z,92.10
2018-04-26T01:14:18.264Z,92.40
2018-04-26T01:15:21.630Z,92.40
2018-04-26T01:16:25.033Z,92.40
2018-04-26T01:17:28.479Z,92.40
2018-04-26T01:18:32.043Z,92.50
2018-04-26T01:19:35.426Z,92.50
2018-04-26T01:20:38.809Z,92.50
2018-04-26T01:21:42.730Z,92.70
2018-04-26T01:22:46.873Z,92.70
2018-04-26T01:23:50.398Z,92.80
2018-04-26T01:24:54.562Z,93.20
2018-04-26T01:25:57.889Z,93.20
2018-04-26T01:27:01.218Z,93.30
2018-04-26T01:28:04.591Z,93.30
2018-04-26T01:29:08.683Z,93.20
2018-04-26T01:30:12.783Z,93.30
2018-04-26T01:31:16.121Z,93.30
2018-04-26T01:32:19.449Z,93.10
2018-04-26T01:33:22.833Z,93.10
2018-04-26T01:34:26.186Z,93.20
2018-04-26T01:35:29.552Z,93.30
2018-04-26T01:36:50.337Z,93.40
2018-04-26T01:37:53.658Z,93.60
2018-04-26T01:38:57.184Z,93.40
2018-04-26T01:40:00.610Z,93.30
2018-04-26T01:41:04.134Z,93.40
2018-04-26T01:42:08.273Z,93.40
2018-04-26T01:43:12.367Z,93.30
2018-04-26T01:44:16.501Z,93.30
2018-04-26T01:45:19.946Z,93.30
2018-04-26T01:46:23.275Z,93.00
2018-04-26T01:47:27.655Z,93.20
2018-04-26T01:48:31.018Z,93.20
2018-04-26T01:49:35.262Z,93.60
2018-04-26T01:50:38.626Z,93.60
2018-04-26T01:51:41.968Z,93.70
2018-04-26T01:52:45.319Z,93.70
2018-04-26T01:53:48.646Z,93.70
2018-04-26T01:54:52.105Z,93.80
2018-04-26T01:55:55.537Z,94.00
2018-04-26T01:56:59.024Z,93.90
2018-04-26T01:58:03.322Z,94.00
2018-04-26T01:59:06.638Z,94.00
2018-04-26T02:00:10.847Z,94.20
2018-04-26T02:01:14.999Z,94.30
2018-04-26T02:02:18.298Z,94.30
2018-04-26T02:03:21.742Z,94.30
2018-04-26T02:04:25.110Z,94.30
2018-04-26T02:05:28.484Z,94.30
2018-04-26T02:06:31.873Z,94.50
2018-04-26T02:07:35.178Z,94.60
2018-04-26T02:08:39.282Z,94.70
2018-04-26T02:09:43.367Z,94.70
2018-04-26T02:10:46.742Z,94.70
2018-04-26T02:11:50.148Z,94.60
2018-04-26T02:12:54.280Z,94.90
2018-04-26T02:13:57.611Z,94.80
2018-04-26T02:15:00.958Z,94.90
2018-04-26T02:16:04.395Z,95.10
2018-04-26T02:17:07.711Z,95.30
2018-04-26T02:18:11.029Z,95.10
2018-04-26T02:19:14.395Z,95.10
2018-04-26T02:20:17.792Z,95.20
2018-04-26T02:21:21.250Z,95.10
2018-04-26T02:22:24.553Z,95.30
2018-04-26T02:23:27.879Z,95.30
2018-04-26T02:24:31.191Z,95.50
2018-04-26T02:25:34.549Z,95.50
2018-04-26T02:26:37.900Z,96.10
2018-04-26T02:27:41.236Z,95.70
2018-04-26T02:28:45.360Z,95.80
2018-04-26T02:29:48.703Z,95.80
2018-04-26T02:30:52.032Z,95.90
2018-04-26T02:31:56.202Z,95.90
2018-04-26T02:32:59.506Z,95.90
2018-04-26T02:34:02.861Z,96.00
2018-04-26T02:35:06.191Z,96.00
2018-04-26T02:36:09.498Z,96.30
2018-04-26T02:37:12.865Z,96.30
2018-04-26T02:38:16.251Z,96.40
2018-04-26T02:39:19.622Z,96.50
2018-04-26T02:40:23.422Z,96.60
2018-04-26T02:41:27.522Z,96.70
2018-04-26T02:42:30.850Z,96.70
2018-04-26T02:43:34.269Z,96.70
2018-04-26T02:44:37.641Z,97.30
2018-04-26T02:45:40.997Z,96.90
2018-04-26T02:46:44.406Z,96.80
2018-04-26T02:47:47.920Z,96.90
2018-04-26T02:48:51.239Z,96.90
2018-04-26T02:49:54.646Z,97.00
2018-04-26T02:50:58.035Z,97.00
2018-04-26T02:52:01.433Z,97.40
2018-04-26T02:53:04.763Z,97.40
2018-04-26T02:54:08.098Z,97.30
2018-04-26T02:55:11.404Z,97.40
2018-04-26T02:56:14.764Z,97.40
2018-04-26T02:57:18.111Z,97.50
2018-04-26T02:58:21.482Z,97.50
2018-04-26T03:00:20.972Z,97.50
2018-04-26T03:01:24.274Z,97.60
2018-04-26T03:02:27.601Z,97.60
2018-04-26T03:03:30.953Z,97.60
2018-04-26T03:04:35.040Z,97.50
2018-04-26T03:05:39.240Z,97.60
2018-04-26T03:06:43.368Z,97.80
2018-04-26T03:07:46.871Z,97.80
2018-04-26T03:08:50.272Z,97.80
2018-04-26T03:09:53.588Z,97.70
2018-04-26T03:10:56.972Z,97.80
2018-04-26T03:12:00.290Z,97.60
2018-04-26T03:13:04.558Z,97.90
2018-04-26T03:14:07.905Z,97.90
2018-04-26T03:15:11.231Z,98.00
2018-04-26T03:16:14.549Z,98.00
2018-04-26T03:17:17.972Z,98.00
2018-04-26T03:18:21.441Z,98.30
2018-04-26T03:19:24.837Z,98.50
2018-04-26T03:20:28.159Z,98.30
2018-04-26T03:21:31.500Z,98.30
2018-04-26T03:22:34.824Z,98.30
2018-04-26T03:23:38.168Z,98.30
2018-04-26T03:24:41.567Z,98.30
2018-04-26T03:25:44.876Z,98.50
2018-04-26T03:26:48.224Z,98.30
2018-04-26T03:28:50.567Z,98.00
2018-04-26T03:29:54.666Z,98.10
2018-04-26T03:32:03.154Z,98.30
2018-04-26T03:33:06.446Z,98.20
2018-04-26T03:34:10.318Z,98.30
2018-04-26T03:35:13.686Z,98.30
2018-04-26T03:36:17.039Z,98.30
2018-04-26T03:37:20.545Z,98.40
2018-04-26T03:38:24.626Z,98.20
2018-04-26T03:39:28.089Z,98.20
2018-04-26T03:40:31.531Z,98.40
2018-04-26T03:41:34.869Z,98.60
2018-04-26T03:42:38.187Z,98.50
2018-04-26T03:43:41.501Z,98.60
2018-04-26T03:44:44.848Z,98.70
2018-04-26T03:45:48.999Z,98.80
2018-04-26T03:46:52.375Z,98.80
2018-04-26T03:47:55.749Z,99.00
2018-04-26T03:48:59.087Z,99.10
2018-04-26T03:50:02.468Z,99.20
2018-04-26T03:51:05.944Z,99.20
2018-04-26T03:52:09.277Z,99.20
2018-04-26T03:53:12.646Z,99.20
2018-04-26T03:54:16.799Z,99.20
2018-04-26T03:55:20.334Z,99.20
2018-04-26T03:56:23.733Z,99.70
2018-04-26T03:57:27.801Z,99.20
2018-04-26T03:58:31.108Z,99.20
2018-04-26T03:59:52.708Z,99.10
2018-04-26T04:01:14.467Z,99.10
2018-04-26T04:02:37.200Z,99.10
2018-04-26T04:03:59.363Z,98.90
2018-04-26T04:05:21.194Z,98.90
2018-04-26T04:06:24.505Z,99.10
2018-04-26T04:07:27.804Z,99.20
2018-04-26T04:08:31.946Z,99.20
2018-04-26T04:09:35.251Z,99.20
2018-04-26T04:10:38.623Z,99.10
2018-04-26T04:11:41.966Z,99.20
2018-04-26T04:12:46.096Z,99.30
2018-04-26T04:13:53.324Z,99.30
2018-04-26T04:16:07.596Z,99.20
2018-04-26T04:17:11.658Z,99.30
2018-04-26T04:18:15.036Z,99.30
2018-04-26T04:19:18.382Z,99.00
2018-04-26T04:20:21.700Z,99.10
2018-04-26T04:21:25.110Z,99.20
2018-04-26T04:22:28.492Z,99.30
2018-04-26T04:23:31.850Z,99.10
2018-04-26T04:24:35.237Z,99.10
2018-04-26T04:26:48.081Z,99.10
2018-04-26T04:27:51.484Z,99.10
2018-04-26T04:28:54.785Z,99.10
2018-04-26T04:29:58.318Z,99.10
2018-04-26T04:31:01.678Z,99.10
2018-04-26T04:32:05.862Z,99.10
2018-04-26T04:33:09.951Z,99.10
2018-04-26T04:34:14.106Z,99.10
2018-04-26T04:35:17.514Z,99.10
2018-04-26T04:36:20.821Z,99.00
2018-04-26T04:37:24.159Z,99.10
2018-04-26T04:38:27.610Z,98.70
2018-04-26T04:39:30.988Z,98.90
2018-04-26T04:40:42.748Z,98.90
2018-04-26T04:41:46.942Z,98.80
2018-04-26T04:42:50.257Z,98.70
2018-04-26T04:43:53.586Z,98.70
2018-04-26T04:44:56.934Z,98.50
2018-04-26T04:46:01.062Z,98.30
2018-04-26T04:47:04.384Z,98.30
2018-04-26T04:48:07.723Z,98.40
2018-04-26T04:49:11.097Z,98.50
2018-04-26T04:50:15.242Z,98.40
2018-04-26T04:51:18.699Z,98.40
2018-04-26T04:52:22.095Z,98.10
2018-04-26T04:53:25.428Z,98.10
2018-04-26T04:54:28.760Z,98.20
2018-04-26T04:55:32.059Z,98.00
2018-04-26T04:56:35.415Z,98.10
2018-04-26T04:57:39.488Z,98.20
2018-04-26T04:58:42.814Z,98.20
2018-04-26T04:59:46.930Z,98.10
2018-04-26T05:00:50.303Z,98.10
2018-04-26T05:01:53.641Z,98.10
2018-04-26T05:02:56.970Z,97.70
2018-04-26T05:04:00.341Z,98.20
2018-04-26T05:05:03.722Z,97.80
2018-04-26T05:06:08.097Z,97.70
2018-04-26T05:07:11.482Z,97.70
2018-04-26T05:08:14.826Z,98.10
2018-04-26T05:09:18.138Z,98.30
2018-04-26T05:10:21.462Z,98.40
2018-04-26T05:11:24.809Z,98.70
2018-04-26T05:13:37.669Z,98.80
2018-04-26T05:14:41.000Z,98.90
2018-04-26T05:15:44.311Z,99.20
2018-04-26T05:16:47.673Z,99.60
2018-04-26T05:17:51.103Z,99.20
2018-04-26T05:18:54.947Z,99.30
2018-04-26T05:19:58.365Z,99.40
2018-04-26T05:21:01.730Z,99.30
2018-04-26T05:22:05.184Z,99.50
2018-04-26T05:23:08.605Z,99.40
2018-04-26T05:24:12.029Z,99.50
2018-04-26T05:25:15.430Z,99.60
2018-04-26T05:26:21.710Z,99.40
2018-04-26T05:27:25.494Z,99.40
2018-04-26T05:28:29.809Z,99.80
2018-04-26T05:29:33.840Z,99.40
2018-04-26T05:30:37.242Z,99.20
2018-04-26T05:31:40.614Z,99.40
2018-04-26T05:32:44.000Z,99.50
2018-04-26T05:33:47.331Z,99.80
2018-04-26T05:39:41.264Z,99.90
2018-04-26T05:40:45.017Z,99.90
2018-04-26T05:41:48.463Z,99.90
2018-04-26T05:42:51.997Z,99.90
2018-04-26T05:43:56.389Z,99.90
2018-04-26T05:44:59.913Z,99.90
2018-04-26T05:46:03.264Z,99.90
2018-04-26T05:47:15.156Z,99.90
2018-04-26T05:48:20.670Z,99.90
2018-04-26T05:49:26.026Z,99.90
2018-04-26T05:50:29.455Z,99.90
2018-04-26T05:51:33.099Z,99.90
2018-04-26T05:52:36.447Z,99.90
2018-04-26T05:53:39.825Z,99.90
2018-04-26T05:54:43.158Z,99.90
2018-04-26T05:55:46.799Z,99.90
2018-04-26T05:56:50.134Z,99.90
2018-04-26T05:57:53.498Z,99.90
2018-04-26T05:58:57.899Z,99.90
2018-04-26T06:00:01.304Z,99.90
2018-04-26T06:01:04.682Z,99.90
2018-04-26T06:02:08.846Z,99.90
2018-04-26T06:03:12.310Z,99.90
2018-04-26T06:04:16.490Z,99.90
2018-04-26T06:05:20.345Z,99.90
2018-04-26T06:06:23.716Z,99.90
2018-04-26T06:07:27.859Z,99.90
2018-04-26T06:08:31.260Z,99.90
2018-04-26T06:09:34.897Z,99.90
2018-04-26T06:10:38.248Z,99.90
2018-04-26T06:11:42.102Z,99.90
2018-04-26T06:12:45.539Z,99.90
2018-04-26T06:13:48.891Z,99.90
2018-04-26T06:14:52.230Z,99.90
2018-04-26T06:15:55.572Z,99.90
2018-04-26T06:16:58.937Z,99.90
2018-04-26T06:18:02.282Z,99.90
2018-04-26T06:19:05.831Z,99.90
2018-04-26T06:20:09.156Z,99.90
2018-04-26T06:21:12.540Z,99.80
2018-04-26T06:22:15.885Z,99.80
2018-04-26T06:23:19.265Z,99.00
2018-04-26T06:24:22.571Z,99.60
2018-04-26T06:25:25.922Z,99.40
2018-04-26T06:26:29.435Z,99.40
2018-04-26T06:27:32.845Z,99.60
2018-04-26T06:28:36.202Z,99.90
2018-04-26T06:29:40.044Z,99.90
2018-04-26T06:30:43.617Z,99.90
2018-04-26T06:31:47.227Z,99.90
2018-04-26T06:32:50.601Z,99.90
2018-04-26T06:33:54.054Z,99.90
2018-04-26T06:34:57.371Z,99.90
2018-04-26T06:36:00.687Z,99.90
2018-04-26T06:37:04.008Z,99.90
2018-04-26T06:38:07.409Z,99.90
2018-04-26T06:39:11.018Z,99.90
2018-04-26T06:40:15.172Z,99.90
2018-04-26T06:42:27.277Z,99.90
2018-04-26T06:43:30.591Z,99.90
2018-04-26T06:44:33.943Z,99.90
2018-04-26T06:45:37.372Z,99.90
2018-04-26T06:46:40.784Z,99.90
2018-04-26T06:47:44.874Z,99.90
2018-04-26T06:48:48.284Z,99.90
2018-04-26T06:49:51.656Z,99.90
2018-04-26T06:50:55.001Z,99.90
2018-04-26T06:51:59.449Z,99.90
2018-04-26T06:53:02.833Z,99.90
2018-04-26T06:54:06.261Z,99.90
2018-04-26T06:55:09.638Z,99.90
2018-04-26T06:56:13.131Z,99.90
2018-04-26T06:57:16.488Z,99.90
2018-04-26T06:58:19.901Z,99.90
2018-04-26T06:59:23.255Z,99.90
2018-04-26T07:00:27.437Z,99.90
2018-04-26T07:01:30.776Z,99.90
2018-04-26T07:02:34.100Z,99.90
2018-04-26T07:03:37.601Z,99.90
2018-04-26T07:04:41.054Z,99.90
2018-04-26T07:05:44.521Z,99.90
2018-04-26T07:06:47.852Z,99.90
2018-04-26T07:07:51.206Z,99.90
2018-04-26T07:08:54.582Z,99.90
2018-04-26T07:09:57.965Z,99.90
2018-04-26T07:11:01.316Z,99.90
2018-04-26T07:12:04.797Z,99.90
2018-04-26T07:13:08.190Z,99.90
2018-04-26T07:14:11.688Z,99.90
2018-04-26T07:15:15.091Z,99.90
2018-04-26T07:16:18.647Z,99.90
2018-04-26T07:17:22.008Z,99.90
2018-04-26T07:18:25.355Z,99.90
2018-04-26T07:19:28.728Z,99.90
2018-04-26T07:20:32.136Z,99.90
2018-04-26T07:21:35.496Z,99.90
2018-04-26T07:22:39.662Z,99.70
2018-04-26T07:23:43.071Z,99.70
2018-04-26T07:24:46.496Z,99.90
2018-04-26T07:25:49.835Z,99.60
2018-04-26T07:26:53.194Z,99.40
2018-04-26T07:27:56.491Z,99.00
2018-04-26T07:28:59.888Z,98.60
2018-04-26T07:30:03.280Z,98.10
2018-04-26T07:31:06.677Z,98.10
2018-04-26T07:32:10.843Z,97.70
2018-04-26T07:33:14.154Z,97.60
2018-04-26T07:34:18.342Z,96.50
2018-04-26T07:35:21.712Z,96.60
2018-04-26T07:36:25.113Z,96.70
2018-04-26T07:37:28.488Z,96.20
2018-04-26T07:38:31.868Z,96.30
2018-04-26T07:39:35.176Z,96.70
2018-04-26T07:40:38.507Z,96.50
2018-04-26T07:41:41.861Z,96.40
2018-04-26T07:42:45.209Z,96.10
2018-04-26T07:43:48.660Z,96.10
2018-04-26T07:44:52.096Z,95.60
2018-04-26T07:45:55.367Z,95.40
2018-04-26T07:46:58.762Z,95.00
2018-04-26T07:48:02.094Z,95.20
2018-04-26T07:49:05.403Z,94.00
2018-04-26T07:50:08.784Z,94.00
2018-04-26T07:51:12.229Z,93.90
2018-04-26T07:52:15.856Z,94.10
2018-04-26T07:53:19.244Z,93.80
2018-04-26T07:54:23.331Z,93.20
2018-04-26T07:55:26.738Z,93.20
2018-04-26T07:56:30.086Z,93.60
2018-04-26T07:57:33.443Z,93.70
2018-04-26T07:58:36.804Z,93.70
2018-04-26T07:59:40.155Z,93.90
2018-04-26T08:00:44.282Z,92.80
2018-04-26T08:01:47.744Z,92.70
2018-04-26T08:02:51.129Z,92.50
2018-04-26T08:03:54.476Z,92.70
2018-04-26T08:04:57.800Z,92.50
2018-04-26T08:06:01.128Z,92.70
2018-04-26T08:07:04.469Z,92.80
2018-04-26T08:08:08.645Z,92.70
2018-04-26T08:09:11.959Z,92.70
2018-04-26T08:10:15.348Z,92.50
2018-04-26T08:11:19.422Z,92.40
2018-04-26T08:12:22.741Z,92.50
2018-04-26T08:13:26.909Z,91.90
2018-04-26T08:14:30.246Z,91.90
2018-04-26T08:15:33.588Z,92.10
2018-04-26T08:16:37.050Z,92.40
2018-04-26T08:17:40.406Z,91.90
2018-04-26T08:18:43.764Z,91.80
2018-04-26T08:19:47.086Z,91.90
2018-04-26T08:20:50.433Z,91.70
2018-04-26T08:21:53.849Z,91.00
2018-04-26T08:22:57.126Z,91.50
2018-04-26T08:24:00.484Z,91.30
2018-04-26T08:25:03.903Z,91.30
2018-04-26T08:26:07.155Z,90.70
2018-04-26T08:27:11.160Z,90.30
2018-04-26T08:28:14.524Z,90.20
2018-04-26T08:29:17.874Z,90.70
2018-04-26T08:30:21.192Z,90.40
2018-04-26T08:31:24.526Z,89.60
2018-04-26T08:32:27.870Z,89.20
2018-04-26T08:33:31.203Z,89.90
2018-04-26T08:34:34.575Z,90.00
2018-04-26T08:35:38.695Z,88.90
2018-04-26T08:36:42.034Z,88.90
2018-04-26T08:37:45.375Z,88.60
2018-04-26T08:38:48.707Z,87.70
2018-04-26T08:39:52.130Z,87.50
2018-04-26T08:40:55.445Z,87.50
2018-04-26T08:41:58.835Z,87.10
2018-04-26T08:43:02.149Z,86.50
2018-04-26T08:44:05.493Z,86.00
2018-04-26T08:45:09.035Z,86.20
2018-04-26T08:46:12.409Z,87.40
2018-04-26T08:47:15.800Z,88.00
2018-04-26T08:48:19.956Z,87.90
2018-04-26T08:49:23.305Z,87.90
2018-04-26T08:50:27.448Z,89.90
2018-04-26T08:51:30.768Z,90.00
2018-04-26T08:52:34.183Z,90.50
2018-04-26T08:53:38.337Z,90.90
2018-04-26T08:54:41.797Z,90.90
2018-04-26T08:55:45.190Z,91.20
2018-04-26T08:56:48.622Z,91.20
2018-04-26T08:57:51.965Z,90.90
2018-04-26T08:58:55.310Z,90.90
2018-04-26T08:59:58.642Z,90.80
2018-04-26T09:01:02.035Z,91.20
2018-04-26T09:02:05.332Z,91.20
2018-04-26T09:03:08.653Z,91.20
2018-04-26T09:04:11.976Z,91.20
2018-04-26T09:05:15.268Z,91.40
2018-04-26T09:06:18.592Z,91.40
2018-04-26T09:07:22.004Z,91.20
2018-04-26T09:08:26.150Z,91.10
2018-04-26T09:09:29.486Z,91.10
2018-04-26T09:10:33.611Z,90.20
2018-04-26T09:11:36.966Z,90.10
2018-04-26T09:12:40.336Z,90.00
2018-04-26T09:13:43.661Z,90.20
2018-04-26T09:14:46.961Z,87.70
2018-04-26T09:15:50.287Z,85.50
2018-04-26T09:16:53.628Z,83.90
2018-04-26T09:17:56.956Z,83.00
2018-04-26T09:19:00.274Z,80.60
2018-04-26T09:20:03.632Z,79.20
2018-04-26T09:21:08.301Z,78.60
2018-04-26T09:22:11.623Z,78.50
2018-04-26T09:23:14.984Z,79.00
2018-04-26T09:25:34.453Z,78.50
2018-04-26T09:26:38.021Z,79.70
2018-04-26T09:27:41.390Z,79.90
2018-04-26T09:29:45.223Z,80.80
2018-04-26T09:30:48.538Z,81.80
2018-04-26T09:31:51.895Z,83.00
2018-04-26T09:32:55.777Z,84.90
2018-04-26T09:33:59.210Z,84.50
2018-04-26T09:35:02.571Z,85.60
2018-04-26T09:36:05.946Z,83.30
2018-04-26T09:37:09.302Z,82.70
2018-04-26T09:38:12.625Z,82.40
2018-04-26T09:39:15.993Z,82.10
2018-04-26T09:40:19.316Z,79.60
2018-04-26T09:41:22.713Z,78.90
2018-04-26T09:42:26.041Z,78.90
2018-04-26T09:43:29.726Z,78.30
2018-04-26T09:44:33.057Z,76.90
2018-04-26T09:45:36.363Z,75.50
2018-04-26T09:46:39.699Z,75.50
2018-04-26T09:47:43.031Z,72.80
2018-04-26T09:48:47.165Z,71.40
2018-04-26T09:49:51.250Z,72.60
2018-04-26T09:50:54.575Z,72.60
2018-04-26T09:51:57.926Z,72.60
2018-04-26T09:53:01.297Z,73.30
2018-04-26T09:54:04.636Z,73.40
2018-04-26T09:55:07.996Z,74.20
2018-04-26T09:56:11.337Z,74.80
2018-04-26T09:57:14.647Z,75.90
2018-04-26T09:58:18.001Z,76.40
2018-04-26T09:59:21.387Z,77.50
2018-04-26T10:00:28.608Z,77.90
2018-04-26T10:01:35.831Z,78.20
2018-04-26T10:02:44.585Z,78.20
2018-04-26T10:03:54.293Z,78.30
2018-04-26T10:04:57.623Z,77.90
2018-04-26T10:06:00.953Z,77.60
2018-04-26T10:07:04.322Z,77.60
2018-04-26T10:08:07.643Z,77.00
2018-04-26T10:09:11.014Z,76.60
2018-04-26T10:10:14.381Z,76.40
2018-04-26T10:11:17.795Z,74.50
2018-04-26T10:12:21.152Z,74.60
2018-04-26T10:13:24.494Z,74.40
2018-04-26T10:14:27.864Z,72.80
2018-04-26T10:15:31.211Z,72.80
2018-04-26T10:16:34.562Z,73.80
2018-04-26T10:17:37.884Z,74.50
2018-04-26T10:18:41.178Z,74.90
2018-04-26T10:19:44.521Z,73.60
2018-04-26T10:20:47.875Z,73.40
2018-04-26T10:21:51.205Z,72.70
2018-04-26T10:22:54.530Z,73.60
2018-04-26T10:23:58.024Z,73.20
2018-04-26T10:25:01.395Z,73.70
2018-04-26T10:26:04.774Z,73.40
2018-04-26T10:27:08.117Z,73.00
2018-04-26T10:28:11.688Z,73.20
2018-04-26T10:29:15.022Z,73.30
2018-04-26T10:30:18.406Z,74.00
2018-04-26T10:31:21.801Z,74.50
2018-04-26T10:32:25.164Z,74.10
2018-04-26T10:33:28.646Z,74.20
2018-04-26T10:34:32.712Z,71.40
2018-04-26T10:35:36.063Z,71.50
2018-04-26T10:36:39.526Z,70.90
2018-04-26T10:37:43.629Z,68.60
2018-04-26T10:38:46.963Z,68.60
2018-04-26T10:39:50.304Z,69.90
2018-04-26T10:40:53.675Z,68.40
2018-04-26T10:41:57.008Z,68.10
2018-04-26T10:43:00.335Z,67.40
2018-04-26T10:44:03.672Z,66.20
2018-04-26T10:45:07.015Z,66.60
2018-04-26T10:46:10.329Z,66.50
2018-04-26T10:47:13.671Z,66.50
2018-04-26T10:48:16.964Z,66.60
2018-04-26T10:49:21.146Z,69.50
2018-04-26T10:50:24.449Z,69.30
2018-04-26T10:51:29.439Z,71.70
2018-04-26T10:52:32.783Z,71.70
2018-04-26T10:53:36.878Z,71.60
2018-04-26T10:54:40.181Z,71.60
2018-04-26T10:55:43.486Z,71.90
2018-04-26T10:56:46.829Z,71.60
2018-04-26T10:57:50.944Z,71.60
2018-04-26T10:58:54.259Z,71.60
2018-04-26T10:59:57.573Z,72.60
2018-04-26T11:01:01.244Z,72.60
2018-04-26T11:02:04.918Z,72.90
2018-04-26T11:03:08.240Z,73.90
2018-04-26T11:04:11.547Z,74.40
2018-04-26T11:05:15.804Z,76.10
2018-04-26T11:06:19.135Z,75.40
2018-04-26T11:07:22.478Z,74.70
2018-04-26T11:08:25.808Z,74.50
2018-04-26T11:09:29.954Z,74.70
2018-04-26T11:10:33.294Z,74.70
2018-04-26T11:11:36.702Z,74.70
2018-04-26T11:12:40.095Z,74.50
2018-04-26T11:13:43.626Z,74.00
2018-04-26T11:14:47.066Z,73.00
2018-04-26T11:15:50.490Z,71.40
2018-04-26T11:16:53.888Z,70.80
2018-04-26T11:17:57.655Z,70.80
2018-04-26T11:19:01.003Z,69.90
2018-04-26T11:20:04.331Z,68.20
2018-04-26T11:21:07.661Z,66.30
2018-04-26T11:22:10.987Z,64.50
2018-04-26T11:23:14.347Z,63.70
2018-04-26T11:24:18.563Z,66.70
2018-04-26T11:25:22.687Z,67.40
2018-04-26T11:26:26.024Z,67.50
2018-04-26T11:27:29.390Z,68.00
2018-04-26T11:28:32.694Z,68.90
2018-04-26T11:29:36.020Z,69.80
2018-04-26T11:30:39.386Z,68.80
2018-04-26T11:31:42.707Z,67.50
2018-04-26T11:32:46.056Z,67.60
2018-04-26T11:33:50.178Z,66.90
2018-04-26T11:34:53.529Z,66.90
2018-04-26T11:35:57.665Z,66.50
2018-04-26T11:37:01.041Z,66.50
2018-04-26T11:38:04.409Z,64.80
2018-04-26T11:39:07.763Z,64.50
2018-04-26T11:40:11.148Z,63.60
2018-04-26T11:41:14.465Z,63.30
2018-04-26T11:42:17.873Z,63.50
2018-04-26T11:43:21.223Z,62.40
2018-04-26T11:44:24.573Z,62.80
2018-04-26T11:45:27.984Z,62.00
2018-04-26T11:46:31.375Z,61.00
2018-04-26T11:47:34.797Z,61.50
2018-04-26T11:48:38.122Z,61.50
2018-04-26T11:49:41.466Z,61.40
2018-04-26T11:50:44.820Z,61.40
2018-04-26T11:51:48.954Z,61.40
2018-04-26T11:52:52.382Z,61.40
2018-04-26T11:53:55.820Z,60.30
2018-04-26T11:54:59.172Z,59.60
2018-04-26T11:56:02.553Z,58.60
2018-04-26T11:57:05.886Z,57.40
2018-04-26T11:58:09.979Z,57.30
2018-04-26T11:59:13.304Z,57.40
2018-04-26T12:00:16.627Z,57.10
2018-04-26T12:01:19.990Z,55.60
2018-04-26T12:02:23.453Z,55.40
2018-04-26T12:03:27.533Z,55.70
2018-04-26T12:04:31.709Z,56.30
2018-04-26T12:05:35.733Z,57.20
2018-04-26T12:06:39.114Z,57.10
2018-04-26T12:07:42.483Z,57.10
2018-04-26T12:08:45.767Z,56.20
2018-04-26T12:09:49.093Z,55.80
2018-04-26T12:10:52.556Z,56.10
2018-04-26T12:11:55.939Z,56.40
2018-04-26T12:12:59.356Z,56.40
2018-04-26T12:14:02.719Z,55.90
2018-04-26T12:15:06.068Z,55.50
2018-04-26T12:16:09.387Z,56.00
2018-04-26T12:17:12.801Z,56.00
2018-04-26T12:18:16.157Z,56.60
2018-04-26T12:19:19.523Z,55.60
2018-04-26T12:20:22.936Z,55.10
2018-04-26T12:21:26.328Z,55.00
2018-04-26T12:22:30.476Z,55.60
2018-04-26T12:23:33.912Z,55.60
2018-04-26T12:24:37.224Z,54.00
2018-04-26T12:25:40.623Z,53.50
2018-04-26T12:26:45.221Z,53.10
2018-04-26T12:27:48.665Z,51.70
2018-04-26T12:28:52.017Z,50.80
2018-04-26T12:29:55.364Z,51.20
2018-04-26T12:30:59.448Z,51.30
2018-04-26T12:32:02.816Z,51.30
2018-04-26T12:33:06.152Z,51.90
2018-04-26T12:34:10.287Z,53.10
2018-04-26T12:35:13.678Z,53.20
2018-04-26T12:36:17.338Z,52.60
2018-04-26T12:37:20.705Z,53.50
2018-04-26T12:38:24.794Z,53.90
2018-04-26T12:39:28.108Z,53.90
2018-04-26T12:40:32.488Z,53.90
2018-04-26T12:41:35.814Z,54.00
2018-04-26T12:42:39.594Z,54.80
2018-04-26T12:43:42.940Z,55.60
2018-04-26T12:44:46.316Z,55.60
2018-04-26T12:45:49.689Z,55.90
2018-04-26T12:46:53.021Z,54.60
2018-04-26T12:47:56.389Z,54.40
2018-04-26T12:48:59.753Z,54.70
2018-04-26T12:50:03.129Z,55.60
2018-04-26T12:51:06.482Z,55.10
2018-04-26T12:52:09.893Z,55.10
2018-04-26T12:53:13.289Z,54.50
2018-04-26T12:54:17.664Z,53.10
2018-04-26T12:55:21.043Z,52.90
2018-04-26T12:56:25.161Z,54.10
2018-04-26T12:57:28.502Z,54.00
2018-04-26T12:58:31.895Z,53.50
2018-04-26T12:59:35.237Z,53.10
2018-04-26T13:00:38.579Z,53.90
2018-04-26T13:01:41.875Z,53.70
2018-04-26T13:02:45.194Z,53.10
2018-04-26T13:03:48.605Z,52.60
2018-04-26T13:04:52.057Z,51.90
2018-04-26T13:05:55.338Z,50.90
2018-04-26T13:06:58.722Z,51.10
2018-04-26T13:08:02.106Z,51.00
2018-04-26T13:09:06.170Z,50.60
2018-04-26T13:10:09.552Z,51.10
2018-04-26T13:11:12.937Z,51.00
2018-04-26T13:12:17.030Z,50.40
2018-04-26T13:13:20.396Z,50.30
2018-04-26T13:14:23.710Z,50.10
2018-04-26T13:15:27.186Z,51.00
2018-04-26T13:16:30.552Z,51.50
2018-04-26T13:17:33.938Z,51.00
2018-04-26T13:18:37.325Z,50.50
2018-04-26T13:19:40.704Z,51.90
2018-04-26T13:20:44.040Z,51.90
2018-04-26T13:21:47.357Z,51.90
2018-04-26T13:22:50.854Z,52.10
2018-04-26T13:23:54.230Z,52.20
2018-04-26T13:24:57.534Z,52.70
2018-04-26T13:26:00.918Z,55.00
2018-04-26T13:27:04.329Z,61.20
2018-04-26T13:28:07.747Z,65.70
2018-04-26T13:29:11.064Z,68.70
2018-04-26T13:30:14.391Z,71.30
2018-04-26T13:31:17.710Z,72.10
2018-04-26T13:32:21.198Z,73.70
2018-04-26T13:33:24.548Z,75.60
2018-04-26T13:34:27.906Z,77.90
2018-04-26T13:35:31.340Z,82.20
2018-04-26T13:36:35.471Z,90.50
2018-04-26T13:37:40.071Z,90.50
2018-04-26T13:38:45.522Z,90.90
2018-04-26T13:39:49.900Z,90.20
2018-04-26T13:40:53.591Z,90.20
2018-04-26T13:41:59.252Z,90.90
2018-04-26T13:43:03.032Z,88.40
2018-04-26T13:44:06.566Z,89.70
2018-04-26T13:45:10.005Z,90.70
2018-04-26T13:46:14.130Z,89.70
2018-04-26T13:47:19.214Z,88.10
2018-04-26T13:48:22.705Z,88.00
2018-04-26T13:49:26.052Z,86.60
2018-04-26T13:50:29.400Z,85.40
2018-04-26T13:51:32.797Z,86.70
2018-04-26T13:52:36.910Z,88.30
2018-04-26T13:53:40.224Z,88.40
2018-04-26T13:54:43.717Z,85.00